Time;durP1;ratioP1;P1;durP2;ratioP2;P2;SDS_P1;SDS_P2;PMS_P1;PMS_P2;Temp;Humidity;BMP_temperature;BMP_pressure;BME280_temperature;BME280_humidity;BME280_pressure;Samples;Min_cycle;Max_cycle;Signal;HPM_P1;HPM_P2
2021/05/31 00:00:06;;;;;;;2.67;2.20;;;15.50;80.90;;;;;;5052831;28;20127;-68
2021/05/31 00:02:31;;;;;;;3.72;2.08;;;15.50;81.40;;;;;;5070119;28;20029;-67
2021/05/31 00:04:57;;;;;;;4.40;2.50;;;15.50;81.90;;;;;;5052853;28;20051;-66
2021/05/31 00:07:22;;;;;;;5.20;2.40;;;15.50;82.10;;;;;;5070802;28;20119;-67
2021/05/31 00:09:55;;;;;;;7.68;2.70;;;15.50;82.20;;;;;;5070134;28;20381;-68
2021/05/31 00:12:21;;;;;;;6.70;2.35;;;15.30;82.50;;;;;;5070762;28;20028;-67
2021/05/31 00:14:47;;;;;;;4.20;2.47;;;15.30;82.70;;;;;;5052047;28;20029;-67
2021/05/31 00:17:14;;;;;;;3.15;2.60;;;15.30;83.70;;;;;;5052475;28;20453;-67
2021/05/31 00:19:40;;;;;;;3.03;2.10;;;15.30;83.30;;;;;;5069895;28;20029;-67
2021/05/31 00:22:06;;;;;;;5.32;2.53;;;15.20;83.40;;;;;;5070725;28;20036;-67
2021/05/31 00:24:32;;;;;;;5.03;2.95;;;15.30;83.10;;;;;;5051834;28;20178;-68
2021/05/31 00:26:58;;;;;;;4.60;2.30;;;15.30;83.40;;;;;;5070310;28;20132;-67
2021/05/31 00:29:24;;;;;;;3.05;2.42;;;15.20;83.10;;;;;;5052234;28;20024;-67
2021/05/31 00:31:51;;;;;;;5.75;2.58;;;15.20;84.00;;;;;;5051661;28;20024;-68
2021/05/31 00:34:17;;;;;;;5.30;2.78;;;15.20;83.60;;;;;;5052399;28;20149;-68
2021/05/31 00:36:43;;;;;;;4.38;2.60;;;15.10;84.40;;;;;;5069497;28;20044;-67
2021/05/31 00:39:09;;;;;;;4.22;2.53;;;15.10;85.20;;;;;;5070316;28;20025;-68
2021/05/31 00:41:35;;;;;;;2.92;2.22;;;15.10;85.70;;;;;;5069488;28;20440;-68
2021/05/31 00:44:01;;;;;;;3.67;2.85;;;15.00;87.10;;;;;;5052296;28;20442;-68
2021/05/31 00:46:26;;;;;;;5.45;3.28;;;15.00;87.80;;;;;;5070143;28;20097;-68
2021/05/31 00:48:52;;;;;;;4.63;3.03;;;15.00;88.50;;;;;;5069700;28;20404;-68
2021/05/31 00:51:19;;;;;;;4.07;2.78;;;14.90;89.40;;;;;;5069780;28;20055;-68
2021/05/31 00:53:45;;;;;;;4.13;2.67;;;14.90;90.30;;;;;;5069570;28;20493;-69
2021/05/31 00:56:10;;;;;;;4.72;3.17;;;14.90;90.60;;;;;;5052327;28;20056;-68
2021/05/31 00:58:36;;;;;;;4.95;2.80;;;14.90;90.80;;;;;;5069911;28;20389;-68
2021/05/31 01:01:05;;;;;;;4.22;2.88;;;14.90;91.10;;;;;;5070192;28;20454;-67
2021/05/31 01:03:31;;;;;;;8.23;3.45;;;14.80;91.50;;;;;;5054439;28;20025;-67
2021/05/31 01:06:01;;;;;;;4.40;3.05;;;14.80;91.90;;;;;;5073956;28;20047;-68
2021/05/31 01:08:32;;;;;;;5.50;3.35;;;14.80;92.20;;;;;;5074219;28;20039;-68
2021/05/31 01:11:16;;;;;;;6.40;3.45;;;14.70;92.40;;;;;;5074319;28;20032;-68
2021/05/31 01:14:07;;;;;;;2.90;2.58;;;14.70;92.70;;;;;;5073619;28;20040;-68
2021/05/31 01:16:47;;;;;;;4.53;2.80;;;14.70;92.90;;;;;;5055592;28;20021;-68
2021/05/31 01:19:21;;;;;;;4.10;2.70;;;14.60;93.20;;;;;;5055715;28;20163;-68
2021/05/31 01:22:05;;;;;;;3.50;2.80;;;14.60;93.40;;;;;;5073108;28;20029;-68
2021/05/31 01:24:49;;;;;;;5.68;3.17;;;14.50;93.50;;;;;;5056240;28;20446;-67
2021/05/31 01:27:20;;;;;;;3.67;2.75;;;14.50;93.70;;;;;;5056139;28;20024;-67
2021/05/31 01:29:52;;;;;;;3.95;2.78;;;14.50;94.20;;;;;;5073319;28;20078;-67
2021/05/31 01:32:22;;;;;;;7.47;3.05;;;14.50;94.50;;;;;;5073949;28;20024;-68
2021/05/31 01:34:49;;;;;;;8.32;3.22;;;14.30;94.90;;;;;;5055058;28;20020;-69
2021/05/31 01:37:25;;;;;;;5.60;3.08;;;14.30;95.20;;;;;;5055776;28;20039;-68
2021/05/31 01:39:55;;;;;;;4.28;3.03;;;14.30;95.10;;;;;;5072875;28;20030;-68
2021/05/31 01:42:24;;;;;;;4.45;3.17;;;14.30;95.20;;;;;;5073614;28;20035;-67
2021/05/31 01:45:06;;;;;;;4.72;2.80;;;14.30;95.50;;;;;;5072767;28;20338;-68
2021/05/31 01:47:34;;;;;;;5.20;2.92;;;14.20;95.80;;;;;;5073461;28;20029;-68
2021/05/31 01:50:03;;;;;;;3.53;2.45;;;14.20;96.00;;;;;;5054675;28;20032;-68
2021/05/31 01:52:29;;;;;;;5.43;2.75;;;14.20;96.30;;;;;;5073509;28;20119;-68
2021/05/31 01:54:56;;;;;;;3.83;3.20;;;14.10;96.70;;;;;;5054976;28;20064;-67
2021/05/31 01:57:23;;;;;;;5.32;2.95;;;14.10;96.80;;;;;;5055390;28;20382;-66
2021/05/31 01:59:50;;;;;;;5.35;2.95;;;14.10;97.00;;;;;;5072711;28;20112;-67
2021/05/31 02:02:17;;;;;;;6.50;3.00;;;14.00;97.30;;;;;;5073029;28;20397;-67
2021/05/31 02:04:43;;;;;;;3.58;2.90;;;14.00;97.40;;;;;;5054702;28;20101;-68
2021/05/31 02:07:09;;;;;;;4.43;2.88;;;13.90;97.50;;;;;;5073534;28;20028;-68
2021/05/31 02:09:35;;;;;;;4.15;3.15;;;13.80;97.90;;;;;;5072815;28;20043;-70
2021/05/31 02:12:13;;;;;;;3.65;2.40;;;13.70;98.10;;;;;;5072905;28;20456;-67
2021/05/31 02:14:48;;;;;;;4.57;3.03;;;13.70;98.70;;;;;;5072043;28;20108;-67
2021/05/31 02:17:17;;;;;;;3.63;2.72;;;13.70;98.70;;;;;;5055075;28;20028;-67
2021/05/31 02:19:44;;;;;;;5.55;3.45;;;13.70;98.70;;;;;;5054216;28;20022;-67
2021/05/31 02:22:11;;;;;;;4.25;3.10;;;13.60;98.80;;;;;;5072500;28;20028;-67
2021/05/31 02:24:40;;;;;;;5.95;2.83;;;13.70;99.00;;;;;;5054473;28;20068;-68
2021/05/31 02:27:07;;;;;;;3.80;3.05;;;13.50;98.80;;;;;;5072796;28;20025;-67
2021/05/31 02:29:33;;;;;;;4.68;3.25;;;13.40;99.20;;;;;;5054813;28;20056;-67
2021/05/31 02:31:58;;;;;;;4.88;3.40;;;13.40;99.70;;;;;;5054074;28;20117;-68
2021/05/31 02:34:27;;;;;;;3.40;2.95;;;13.40;99.60;;;;;;5072858;28;20669;-67
2021/05/31 02:36:55;;;;;;;4.53;3.22;;;13.40;99.80;;;;;;5072090;28;20062;-67
2021/05/31 02:39:21;;;;;;;4.43;3.03;;;13.40;99.90;;;;;;5054547;28;20032;-67
2021/05/31 02:41:46;;;;;;;4.57;3.13;;;13.40;99.90;;;;;;5072317;28;20032;-67
2021/05/31 02:44:12;;;;;;;6.25;3.75;;;13.40;99.90;;;;;;5054633;28;20033;-67
2021/05/31 02:46:38;;;;;;;7.20;3.05;;;13.40;99.90;;;;;;5053793;28;20461;-66
2021/05/31 02:49:06;;;;;;;5.28;3.08;;;13.40;99.90;;;;;;5054372;28;20020;-67
2021/05/31 02:54:54;;;;;;;6.00;3.17;;;13.40;99.90;;;;;;5071872;28;20059;-67
2021/05/31 02:57:19;;;;;;;3.97;3.00;;;13.50;99.90;;;;;;5072306;28;20448;-67
2021/05/31 02:59:45;;;;;;;5.43;2.80;;;13.40;99.80;;;;;;5071507;28;20097;-68
2021/05/31 03:02:11;;;;;;;4.63;3.08;;;13.30;99.90;;;;;;5071963;28;20055;-67
2021/05/31 03:04:36;;;;;;;3.80;2.50;;;13.30;99.90;;;;;;5054162;28;20024;-67
2021/05/31 03:07:03;;;;;;;2.78;2.28;;;13.30;99.90;;;;;;5053631;28;20115;-67
2021/05/31 03:09:28;;;;;;;5.70;3.00;;;13.30;99.90;;;;;;5071784;28;20390;-68
2021/05/31 03:11:54;;;;;;;5.57;2.83;;;13.30;99.90;;;;;;5071052;28;20033;-67
2021/05/31 03:14:20;;;;;;;3.92;2.92;;;13.40;99.90;;;;;;5071927;28;20028;-67
2021/05/31 03:16:45;;;;;;;4.97;2.95;;;13.30;99.90;;;;;;5053117;28;20024;-67
2021/05/31 03:19:11;;;;;;;6.72;3.45;;;13.20;99.90;;;;;;5071778;28;20032;-67
2021/05/31 03:21:37;;;;;;;4.00;2.70;;;13.20;99.90;;;;;;5071559;28;20035;-67
2021/05/31 03:24:03;;;;;;;5.07;3.33;;;13.20;99.90;;;;;;5071628;28;20449;-67
2021/05/31 03:26:28;;;;;;;8.77;3.72;;;13.20;99.90;;;;;;5052917;28;20024;-67
2021/05/31 03:28:54;;;;;;;5.75;2.78;;;13.20;99.90;;;;;;5070763;28;20169;-67
2021/05/31 03:31:19;;;;;;;6.80;3.13;;;13.10;99.90;;;;;;5071280;28;20103;-67
2021/05/31 03:33:45;;;;;;;6.50;3.60;;;13.10;99.90;;;;;;5071075;28;20028;-68
2021/05/31 03:36:11;;;;;;;4.10;3.33;;;13.10;99.90;;;;;;5053529;28;20025;-67
2021/05/31 03:38:36;;;;;;;6.47;3.65;;;13.10;99.90;;;;;;5071542;28;20037;-67
2021/05/31 03:41:02;;;;;;;8.60;3.33;;;13.10;99.90;;;;;;5052895;28;20028;-67
2021/05/31 03:43:28;;;;;;;5.60;3.90;;;13.00;99.90;;;;;;5049575;28;20473;-68
2021/05/31 03:45:53;;;;;;;8.65;4.28;;;13.10;99.90;;;;;;5052834;28;20323;-68
2021/05/31 03:48:19;;;;;;;3.97;2.88;;;13.10;99.90;;;;;;5033752;28;20032;-68
2021/05/31 03:50:44;;;;;;;6.47;3.42;;;13.10;99.90;;;;;;5050009;28;20048;-68
2021/05/31 03:53:10;;;;;;;6.20;3.08;;;13.10;99.90;;;;;;5033171;28;20232;-68
2021/05/31 03:55:36;;;;;;;4.97;3.13;;;13.10;99.90;;;;;;5033151;28;20057;-67
2021/05/31 03:58:02;;;;;;;4.80;3.65;;;13.00;99.90;;;;;;5032685;28;20095;-68
2021/05/31 04:00:28;;;;;;;5.15;3.30;;;13.00;99.90;;;;;;5032801;28;20485;-68
2021/05/31 04:02:54;;;;;;;6.43;3.00;;;13.10;99.90;;;;;;5050414;28;20017;-68
2021/05/31 04:05:21;;;;;;;5.93;2.92;;;13.00;99.90;;;;;;5051159;28;20032;-68
2021/05/31 04:13:28;;;;;;;4.28;3.17;;;13.00;99.90;;;;;;5050669;28;20488;-68
2021/05/31 04:15:54;;;;;;;5.68;2.95;;;13.10;99.90;;;;;;5050243;28;20021;-68
2021/05/31 04:18:19;;;;;;;3.35;2.92;;;13.00;99.90;;;;;;5050667;28;20025;-67
2021/05/31 04:20:45;;;;;;;10.18;3.92;;;13.10;99.90;;;;;;5049793;28;20036;-68
2021/05/31 04:23:11;;;;;;;6.13;3.30;;;13.10;99.90;;;;;;5032635;28;20033;-67
2021/05/31 04:25:37;;;;;;;4.13;3.10;;;13.10;99.90;;;;;;5032775;28;20037;-68
2021/05/31 04:28:02;;;;;;;6.07;3.47;;;13.10;99.90;;;;;;5050129;28;20499;-68
2021/05/31 04:30:28;;;;;;;5.80;3.58;;;13.20;99.90;;;;;;5032268;28;20115;-67
2021/05/31 04:32:54;;;;;;;7.53;3.63;;;13.30;99.90;;;;;;5031922;28;20033;-67
2021/05/31 04:35:19;;;;;;;4.65;3.47;;;13.30;99.90;;;;;;5050426;28;20032;-68
2021/05/31 04:37:45;;;;;;;5.90;3.53;;;13.40;99.90;;;;;;5048929;28;20092;-68
2021/05/31 04:40:11;;;;;;;8.52;3.13;;;13.50;99.90;;;;;;5050144;28;20497;-68
2021/05/31 04:42:37;;;;;;;5.75;3.33;;;13.60;99.90;;;;;;5032394;28;20024;-68
2021/05/31 04:45:04;;;;;;;8.75;3.92;;;13.70;99.90;;;;;;5049461;28;20032;-67
2021/05/31 04:47:30;;;;;;;7.78;4.28;;;13.80;99.90;;;;;;5032087;28;20021;-67
2021/05/31 04:49:55;;;;;;;4.47;2.95;;;13.90;99.90;;;;;;5048988;28;20032;-67
2021/05/31 04:52:22;;;;;;;8.18;3.58;;;13.90;99.90;;;;;;5049831;28;20037;-68
2021/05/31 04:54:48;;;;;;;8.98;3.63;;;13.90;99.90;;;;;;5049664;28;20060;-68
2021/05/31 04:57:14;;;;;;;7.40;3.90;;;13.90;99.90;;;;;;5032008;28;20439;-67
2021/05/31 04:59:40;;;;;;;4.95;3.60;;;14.00;99.90;;;;;;5049927;28;20139;-67
2021/05/31 05:02:05;;;;;;;6.70;4.07;;;14.00;99.90;;;;;;5031325;28;20033;-67
2021/05/31 05:04:31;;;;;;;6.05;3.67;;;14.00;99.90;;;;;;5050272;28;20450;-67
2021/05/31 05:06:56;;;;;;;7.18;3.83;;;14.10;99.90;;;;;;5031481;28;20063;-68
2021/05/31 05:09:22;;;;;;;4.20;3.30;;;14.10;99.90;;;;;;5032073;28;20052;-67
2021/05/31 05:11:48;;;;;;;3.60;3.15;;;14.10;99.90;;;;;;5049108;28;20033;-69
2021/05/31 05:14:13;;;;;;;5.30;3.55;;;14.20;99.90;;;;;;5031750;28;20025;-68
2021/05/31 05:16:39;;;;;;;5.88;3.88;;;14.20;99.90;;;;;;5031926;28;20032;-68
2021/05/31 05:19:05;;;;;;;8.48;3.70;;;14.20;99.90;;;;;;5031365;28;20026;-68
2021/05/31 05:21:30;;;;;;;7.68;3.42;;;14.30;99.70;;;;;;5031658;28;20036;-68
2021/05/31 05:23:56;;;;;;;6.43;4.00;;;14.40;99.80;;;;;;5031377;28;20045;-66
2021/05/31 05:26:22;;;;;;;6.13;3.67;;;14.50;99.10;;;;;;5053648;28;20419;-67
2021/05/31 05:28:48;;;;;;;4.18;2.92;;;14.60;99.30;;;;;;5048137;28;20036;-69
2021/05/31 05:31:14;;;;;;;5.07;3.83;;;14.60;99.30;;;;;;5067264;28;20044;-63
2021/05/31 05:33:42;;;;;;;8.65;3.40;;;14.90;99.90;;;;;;5051888;28;20051;-62
2021/05/31 05:36:21;;;;;;;4.90;3.33;;;15.60;99.90;;;;;;5069114;28;20103;-68
2021/05/31 05:46:37;;;;;;;7.72;2.85;;;15.20;97.50;;;;;;5063094;28;20028;-66
2021/05/31 05:49:03;;;;;;;10.80;3.85;;;15.30;97.70;;;;;;5058472;28;20028;-65
2021/05/31 05:51:28;;;;;;;32.85;7.03;;;15.60;99.70;;;;;;5063701;28;20148;-65
2021/05/31 05:53:58;;;;;;;25.08;5.22;;;15.70;98.10;;;;;;5069657;28;20104;-70
2021/05/31 05:56:24;;;;;;;12.68;3.33;;;15.50;96.40;;;;;;5054061;28;20037;-68
2021/05/31 05:58:51;;;;;;;5.28;3.15;;;15.40;96.30;;;;;;5053559;28;20472;-70
2021/05/31 06:01:18;;;;;;;13.38;3.63;;;15.40;95.60;;;;;;5053132;28;20035;-68
2021/05/31 06:03:44;;;;;;;15.00;3.78;;;15.50;95.80;;;;;;5052763;28;20089;-69
2021/05/31 06:06:10;;;;;;;14.85;3.38;;;15.60;95.10;;;;;;5052698;28;20036;-68
2021/05/31 06:08:36;;;;;;;3.38;2.63;;;15.60;94.80;;;;;;5053561;28;20484;-69
2021/05/31 06:11:03;;;;;;;5.00;2.83;;;15.60;94.90;;;;;;5070574;28;20398;-69
2021/05/31 06:13:29;;;;;;;8.13;3.80;;;15.70;94.50;;;;;;5053476;28;20538;-68
2021/05/31 06:15:59;;;;;;;4.18;2.33;;;15.70;94.50;;;;;;5070760;28;20147;-69
2021/05/31 06:18:25;;;;;;;4.68;2.97;;;15.80;94.00;;;;;;5053408;28;20071;-68
2021/05/31 06:20:51;;;;;;;10.77;3.00;;;15.60;93.70;;;;;;5052373;28;20197;-70
2021/05/31 06:23:17;;;;;;;7.18;2.60;;;15.60;93.70;;;;;;5070905;28;20494;-68
2021/05/31 06:25:43;;;;;;;4.53;2.38;;;15.70;93.10;;;;;;5070988;28;20179;-69
2021/05/31 06:28:08;;;;;;;3.88;2.30;;;15.60;93.10;;;;;;5070828;28;20622;-69
2021/05/31 06:30:35;;;;;;;5.75;2.50;;;15.80;92.90;;;;;;5070712;28;20457;-69
2021/05/31 06:33:01;;;;;;;4.40;2.40;;;15.90;92.80;;;;;;5070318;28;20032;-68
2021/05/31 06:35:28;;;;;;;2.78;2.33;;;16.10;91.90;;;;;;5070547;28;20399;-69
2021/05/31 06:37:53;;;;;;;4.80;1.95;;;16.10;91.50;;;;;;5052188;28;20032;-69
2021/05/31 06:40:20;;;;;;;2.75;1.67;;;16.00;91.30;;;;;;5052745;28;20032;-69
2021/05/31 06:42:47;;;;;;;2.85;1.60;;;16.10;91.10;;;;;;5070563;28;20202;-71
2021/05/31 06:45:16;;;;;;;6.88;1.95;;;16.20;91.10;;;;;;5069717;28;20029;-69
2021/05/31 06:47:42;;;;;;;5.18;2.42;;;16.30;91.30;;;;;;5052775;28;20025;-68
2021/05/31 06:50:09;;;;;;;8.80;2.00;;;16.40;91.40;;;;;;5051490;28;20489;-69
2021/05/31 06:52:35;;;;;;;10.90;2.08;;;16.50;91.00;;;;;;5070563;28;20040;-69
2021/05/31 06:55:02;;;;;;;5.97;2.35;;;16.60;90.00;;;;;;5052219;28;20183;-67
2021/05/31 06:57:28;;;;;;;6.53;1.42;;;16.50;88.50;;;;;;5050377;28;20032;-68
2021/05/31 06:59:53;;;;;;;2.63;1.90;;;16.70;87.30;;;;;;5049176;28;20025;-69
2021/05/31 07:02:19;;;;;;;2.72;1.60;;;16.70;87.10;;;;;;5050020;28;20067;-68
2021/05/31 07:04:44;;;;;;;6.80;2.00;;;16.70;87.50;;;;;;5050219;28;20040;-68
2021/05/31 07:07:10;;;;;;;3.92;2.33;;;16.70;87.10;;;;;;5049515;28;20439;-69
2021/05/31 07:09:36;;;;;;;5.95;2.10;;;16.80;87.40;;;;;;5032647;28;20029;-68
2021/05/31 07:12:02;;;;;;;3.65;1.88;;;16.90;86.20;;;;;;5031838;28;20445;-68
2021/05/31 07:14:34;;;;;;;5.57;2.00;;;17.00;85.60;;;;;;5050642;28;20052;-68
2021/05/31 07:17:01;;;;;;;7.65;2.38;;;17.00;85.10;;;;;;5049655;28;20149;-68
2021/05/31 07:19:27;;;;;;;2.53;1.92;;;17.20;82.20;;;;;;5032335;28;20151;-71
2021/05/31 07:21:54;;;;;;;2.45;1.77;;;17.20;82.50;;;;;;5049324;28;20461;-68
2021/05/31 07:24:20;;;;;;;5.75;1.75;;;17.30;81.60;;;;;;5049944;28;20143;-68
2021/05/31 07:26:46;;;;;;;2.80;2.05;;;17.40;81.30;;;;;;5032100;28;20031;-70
2021/05/31 07:29:11;;;;;;;2.55;1.55;;;17.50;81.10;;;;;;5031517;28;20123;-68
2021/05/31 07:31:37;;;;;;;3.80;1.50;;;17.50;81.90;;;;;;5049845;28;20441;-69
2021/05/31 07:34:03;;;;;;;3.20;1.33;;;17.60;81.80;;;;;;5063272;28;20038;-70
2021/05/31 07:36:29;;;;;;;3.58;1.85;;;17.70;81.50;;;;;;5051397;28;20033;-69
2021/05/31 07:38:56;;;;;;;3.67;1.90;;;17.80;80.20;;;;;;5029991;28;20148;-67
2021/05/31 07:41:22;;;;;;;3.92;1.80;;;17.90;81.00;;;;;;5049074;28;20063;-69
2021/05/31 07:43:47;;;;;;;4.00;1.63;;;18.10;80.60;;;;;;5048931;28;20156;-69
2021/05/31 07:46:14;;;;;;;2.47;1.38;;;18.30;80.70;;;;;;5049079;28;20544;-69
2021/05/31 07:48:43;;;;;;;3.17;1.05;;;18.50;79.80;;;;;;5031308;28;20048;-70
2021/05/31 07:51:20;;;;;;;7.85;1.60;;;18.40;78.80;;;;;;5050607;28;20045;-67
2021/05/31 07:53:49;;;;;;;2.70;1.90;;;18.30;78.90;;;;;;5051476;28;20036;-69
2021/05/31 07:56:15;;;;;;;4.10;1.85;;;18.30;78.30;;;;;;5050939;28;20082;-69
2021/05/31 07:58:45;;;;;;;4.22;1.95;;;18.50;79.50;;;;;;5032797;28;20035;-69
2021/05/31 08:01:12;;;;;;;4.78;1.83;;;18.90;79.10;;;;;;5050120;28;20933;-69
2021/05/31 08:03:38;;;;;;;3.15;1.60;;;19.20;77.90;;;;;;5062792;28;20086;-70
2021/05/31 08:06:05;;;;;;;3.78;1.48;;;19.40;75.80;;;;;;5051996;28;20323;-69
2021/05/31 08:08:30;;;;;;;5.45;2.13;;;19.70;73.80;;;;;;5052105;28;20069;-69
2021/05/31 08:10:57;;;;;;;2.63;2.00;;;20.00;72.20;;;;;;5051349;28;20201;-69
2021/05/31 08:13:23;;;;;;;2.38;1.48;;;20.00;73.60;;;;;;5052154;28;20024;-69
2021/05/31 08:15:49;;;;;;;5.20;1.40;;;20.10;71.30;;;;;;5069619;28;20060;-70
2021/05/31 08:18:15;;;;;;;3.53;1.35;;;20.30;72.50;;;;;;5069237;28;20031;-71
2021/05/31 08:20:41;;;;;;;1.77;1.20;;;20.60;71.60;;;;;;5052077;28;20036;-69
2021/05/31 08:23:07;;;;;;;5.93;1.02;;;20.70;66.80;;;;;;5069190;28;20410;-69
2021/05/31 08:25:35;;;;;;;3.92;1.52;;;20.30;67.30;;;;;;5052187;28;20134;-70
2021/05/31 08:28:03;;;;;;;2.53;1.20;;;20.40;64.60;;;;;;5051114;28;20146;-70
2021/05/31 08:30:33;;;;;;;2.70;1.30;;;20.90;67.40;;;;;;5051823;28;20499;-70
2021/05/31 08:33:00;;;;;;;2.28;1.48;;;21.00;65.50;;;;;;5051303;28;20021;-70
2021/05/31 08:35:25;;;;;;;3.45;1.40;;;21.40;67.30;;;;;;5069935;28;20028;-70
2021/05/31 08:37:52;;;;;;;1.40;1.30;;;21.70;65.40;;;;;;5051616;28;20051;-71
2021/05/31 08:40:18;;;;;;;2.67;1.23;;;21.80;63.00;;;;;;5052101;28;20035;-70
2021/05/31 08:42:45;;;;;;;3.47;1.10;;;21.60;63.30;;;;;;5069988;28;20032;-70
2021/05/31 08:45:14;;;;;;;5.63;1.63;;;21.60;62.90;;;;;;5069486;28;20031;-71
2021/05/31 08:47:48;;;;;;;4.55;1.70;;;22.10;63.60;;;;;;5050651;28;20029;-69
2021/05/31 08:50:19;;;;;;;3.97;1.80;;;22.40;64.30;;;;;;5048623;28;20056;-70
2021/05/31 08:52:46;;;;;;;2.15;0.95;;;22.50;61.40;;;;;;5050501;28;20029;-70
2021/05/31 08:55:14;;;;;;;2.45;1.13;;;22.70;58.90;;;;;;5067711;28;20482;-69
2021/05/31 08:57:41;;;;;;;2.25;1.08;;;22.90;59.60;;;;;;5050362;28;20032;-70
2021/05/31 09:00:14;;;;;;;1.52;1.15;;;22.80;59.80;;;;;;5067458;28;20031;-70
2021/05/31 09:02:40;;;;;;;4.10;1.40;;;22.80;58.30;;;;;;5050394;28;20032;-69
2021/05/31 09:05:07;;;;;;;4.50;1.52;;;23.10;58.20;;;;;;5049324;28;20029;-70
2021/05/31 09:07:33;;;;;;;2.58;1.27;;;23.40;57.30;;;;;;5068014;28;20035;-71
2021/05/31 09:09:59;;;;;;;4.43;1.25;;;23.20;56.00;;;;;;5049341;28;20037;-71
2021/05/31 09:12:38;;;;;;;2.65;1.30;;;23.30;57.10;;;;;;5068405;28;20062;-69
2021/05/31 09:15:10;;;;;;;2.35;1.30;;;23.60;57.40;;;;;;5065364;28;20124;-69
2021/05/31 09:17:39;;;;;;;4.35;1.10;;;23.70;57.00;;;;;;5067516;28;20033;-69
2021/05/31 09:20:08;;;;;;;1.30;1.20;;;23.70;57.80;;;;;;5048682;28;20038;-69
2021/05/31 09:22:48;;;;;;;8.07;1.42;;;23.90;56.30;;;;;;5049489;28;20033;-68
2021/05/31 09:25:30;;;;;;;4.93;1.15;;;24.10;55.50;;;;;;5052801;28;20065;-70
2021/05/31 09:27:57;;;;;;;1.98;1.50;;;23.40;54.10;;;;;;5041749;28;20456;-69
2021/05/31 09:30:38;;;;;;;2.78;1.55;;;23.30;57.70;;;;;;5051914;28;20087;-69
2021/05/31 09:33:08;;;;;;;4.97;1.50;;;23.90;57.60;;;;;;5054674;28;20027;-68
2021/05/31 09:35:33;;;;;;;3.97;1.70;;;24.00;56.30;;;;;;5071681;28;20032;-69
2021/05/31 09:38:02;;;;;;;3.85;1.00;;;23.90;54.90;;;;;;5071210;28;20078;-70
2021/05/31 09:40:28;;;;;;;5.13;1.65;;;24.30;56.90;;;;;;5053033;28;20072;-70
2021/05/31 09:43:01;;;;;;;2.92;1.50;;;24.60;54.70;;;;;;5071031;28;20064;-71
2021/05/31 09:45:29;;;;;;;2.92;1.85;;;24.80;55.60;;;;;;5053212;28;20358;-70
2021/05/31 09:47:59;;;;;;;1.63;1.20;;;24.90;54.80;;;;;;5070745;28;20115;-71
2021/05/31 09:50:31;;;;;;;3.70;1.70;;;24.90;53.80;;;;;;5071071;28;20426;-70
2021/05/31 09:53:11;;;;;;;4.20;1.83;;;24.60;53.60;;;;;;5052498;28;20363;-69
2021/05/31 09:55:40;;;;;;;2.83;1.92;;;24.90;55.30;;;;;;5071505;28;20057;-69
2021/05/31 09:58:07;;;;;;;2.65;1.40;;;25.00;54.20;;;;;;5069795;28;20115;-70
2021/05/31 10:00:33;;;;;;;3.70;1.25;;;24.50;53.70;;;;;;5070016;28;20060;-70
2021/05/31 10:03:19;;;;;;;5.32;1.80;;;24.80;54.10;;;;;;5069726;28;20346;-71
2021/05/31 10:10:56;;;;;;;2.97;1.23;;;24.80;51.60;;;;;;5070139;28;20239;-71
2021/05/31 10:13:23;;;;;;;6.85;1.45;;;24.90;51.60;;;;;;5070771;28;20462;-70
2021/05/31 10:15:49;;;;;;;1.75;1.50;;;24.50;53.20;;;;;;5071362;28;20465;-71
2021/05/31 10:18:16;;;;;;;3.30;1.92;;;24.70;53.00;;;;;;5051607;28;20032;-71
2021/05/31 10:20:43;;;;;;;9.63;1.92;;;25.20;52.70;;;;;;5052484;28;20393;-72
2021/05/31 10:23:10;;;;;;;3.35;1.30;;;25.50;52.50;;;;;;5051825;28;20438;-71
2021/05/31 10:25:40;;;;;;;6.85;1.48;;;25.90;54.00;;;;;;5070695;28;20040;-71
2021/05/31 10:28:18;;;;;;;2.60;1.38;;;26.00;52.40;;;;;;5051984;28;20044;-70
2021/05/31 10:30:49;;;;;;;2.83;1.50;;;25.90;52.30;;;;;;5070207;28;20365;-71
2021/05/31 10:33:22;;;;;;;4.22;1.92;;;25.50;51.10;;;;;;5051707;28;20170;-72
2021/05/31 10:35:49;;;;;;;4.32;1.73;;;25.80;50.50;;;;;;5069535;28;20530;-71
2021/05/31 10:38:20;;;;;;;2.58;1.50;;;26.00;51.40;;;;;;5069769;28;20059;-72
2021/05/31 10:40:55;;;;;;;5.13;1.50;;;26.20;52.70;;;;;;5052511;28;20028;-71
2021/05/31 10:43:23;;;;;;;2.08;1.25;;;26.00;51.40;;;;;;5051976;28;20024;-72
2021/05/31 10:45:59;;;;;;;3.53;1.50;;;25.90;50.50;;;;;;5049889;28;20067;-71
2021/05/31 10:48:25;;;;;;;2.95;1.13;;;25.90;51.90;;;;;;5070022;28;20032;-71
2021/05/31 10:51:00;;;;;;;7.57;2.30;;;26.00;50.30;;;;;;5051523;28;20074;-71
2021/05/31 10:53:32;;;;;;;2.28;1.55;;;26.10;52.80;;;;;;5051728;28;20097;-73
2021/05/31 10:56:03;;;;;;;2.00;1.40;;;26.50;52.20;;;;;;5069769;28;20047;-72
2021/05/31 10:58:35;;;;;;;2.03;1.50;;;26.80;51.70;;;;;;5069405;28;20033;-72
2021/05/31 11:01:09;;;;;;;2.40;1.60;;;26.80;50.30;;;;;;5051527;28;20056;-71
2021/05/31 11:03:59;;;;;;;2.88;1.55;;;26.60;51.30;;;;;;5051896;28;20315;-73
2021/05/31 11:06:26;;;;;;;3.90;1.75;;;26.70;51.20;;;;;;5051924;28;20024;-73
2021/05/31 11:09:09;;;;;;;2.70;1.38;;;27.00;50.10;;;;;;5050803;28;20096;-73
2021/05/31 11:11:46;;;;;;;14.07;2.30;;;27.00;48.50;;;;;;5051804;28;20531;-72
2021/05/31 11:14:13;;;;;;;7.07;1.83;;;27.30;49.80;;;;;;5069283;28;20071;-74
2021/05/31 11:16:54;;;;;;;4.30;1.80;;;27.40;48.20;;;;;;5051519;28;20116;-71
2021/05/31 11:19:32;;;;;;;3.60;1.60;;;26.60;48.20;;;;;;5051711;28;20466;-70
2021/05/31 11:21:58;;;;;;;2.00;1.38;;;25.80;49.40;;;;;;5050869;28;20140;-71
2021/05/31 11:24:24;;;;;;;2.00;1.48;;;26.30;50.00;;;;;;5069267;28;20400;-73
2021/05/31 11:26:49;;;;;;;4.18;1.58;;;26.40;50.00;;;;;;5069399;28;20093;-71
2021/05/31 11:29:15;;;;;;;7.00;1.80;;;26.30;49.70;;;;;;5068511;28;20055;-72
2021/05/31 11:31:44;;;;;;;2.45;1.17;;;26.50;51.20;;;;;;5069160;28;20037;-71
2021/05/31 11:34:11;;;;;;;4.05;1.38;;;26.90;51.00;;;;;;5069019;28;20125;-71
2021/05/31 11:36:44;;;;;;;3.45;1.42;;;27.20;51.20;;;;;;5069216;28;20024;-71
2021/05/31 11:39:18;;;;;;;3.45;1.20;;;27.20;47.90;;;;;;5068382;28;20024;-71
2021/05/31 11:41:51;;;;;;;2.80;1.40;;;26.80;49.00;;;;;;5069344;28;20064;-70
2021/05/31 11:44:20;;;;;;;2.58;1.42;;;27.00;49.40;;;;;;5051997;28;20088;-71
2021/05/31 11:46:49;;;;;;;4.97;1.73;;;27.30;49.90;;;;;;5048457;28;20033;-71
2021/05/31 11:49:15;;;;;;;5.88;1.52;;;27.30;48.00;;;;;;5030209;28;20029;-73
2021/05/31 11:51:41;;;;;;;1.90;1.30;;;27.40;49.20;;;;;;5048398;28;20064;-71
2021/05/31 11:54:11;;;;;;;3.42;1.02;;;27.70;49.70;;;;;;5048594;28;20048;-73
2021/05/31 11:56:37;;;;;;;1.52;1.13;;;27.50;47.90;;;;;;5049092;28;20068;-71
2021/05/31 11:59:03;;;;;;;3.55;1.10;;;27.40;47.90;;;;;;5030235;28;20061;-70
2021/05/31 12:01:29;;;;;;;4.93;1.48;;;27.10;45.80;;;;;;5048806;28;20029;-70
2021/05/31 12:03:56;;;;;;;3.38;1.00;;;27.00;45.90;;;;;;5048327;28;20025;-71
2021/05/31 12:06:21;;;;;;;1.95;1.73;;;27.00;46.90;;;;;;5030841;28;20381;-71
2021/05/31 12:08:49;;;;;;;2.55;1.27;;;27.10;46.50;;;;;;5049136;28;20021;-71
2021/05/31 12:11:24;;;;;;;3.95;1.50;;;27.50;47.30;;;;;;5047603;28;20041;-71
2021/05/31 12:14:00;;;;;;;6.10;1.60;;;27.60;45.70;;;;;;5029810;28;20029;-70
2021/05/31 12:16:25;;;;;;;2.50;1.42;;;27.30;49.00;;;;;;5029779;28;20130;-71
2021/05/31 12:18:51;;;;;;;7.35;1.10;;;27.40;46.10;;;;;;5030210;28;20024;-70
2021/05/31 12:21:18;;;;;;;4.47;1.55;;;27.80;46.70;;;;;;5047384;28;20049;-72
2021/05/31 12:23:50;;;;;;;4.38;1.60;;;27.70;46.30;;;;;;5048594;28;20033;-73
2021/05/31 12:26:21;;;;;;;3.40;1.42;;;28.00;45.60;;;;;;5048415;28;20100;-72
2021/05/31 12:28:50;;;;;;;;;;;28.10;45.20;;;;;;5049367;28;20043;-72
2021/05/31 12:31:15;;;;;;;2.65;1.75;;;28.20;45.80;;;;;;5048316;28;19928;-51
2021/05/31 12:33:42;;;;;;;5.28;1.63;;;28.10;46.40;;;;;;5029963;28;20029;-52
2021/05/31 12:36:08;;;;;;;4.28;1.52;;;28.10;47.00;;;;;;5031437;28;20025;-52
2021/05/31 12:38:34;;;;;;;2.00;1.25;;;28.10;46.10;;;;;;5031877;28;20502;-52
2021/05/31 12:41:00;;;;;;;3.47;1.13;;;28.20;47.40;;;;;;5048538;28;20116;-51
2021/05/31 12:43:31;;;;;;;3.17;1.20;;;28.10;44.70;;;;;;5031125;28;20047;-51
2021/05/31 12:45:56;;;;;;;;;;;27.80;46.90;;;;;;5031139;28;20104;-53
2021/05/31 12:48:22;;;;;;;1.65;1.33;;;27.70;46.10;;;;;;5049567;28;20337;-51
2021/05/31 12:50:50;;;;;;;4.68;1.70;;;27.70;45.90;;;;;;5030682;28;20477;-52
2021/05/31 12:53:16;;;;;;;3.75;1.33;;;27.90;46.20;;;;;;5048244;28;20041;-53
2021/05/31 12:55:43;;;;;;;4.35;1.45;;;27.90;45.50;;;;;;5048725;28;20029;-52
2021/05/31 12:58:23;;;;;;;1.65;0.90;;;27.90;45.70;;;;;;5029562;28;20178;-51
2021/05/31 13:00:49;;;;;;;2.45;1.30;;;27.60;44.80;;;;;;5048810;28;20104;-51
2021/05/31 13:03:17;;;;;;;3.10;1.17;;;27.60;45.70;;;;;;5048223;28;20036;-51
2021/05/31 13:05:48;;;;;;;2.05;1.50;;;27.70;46.40;;;;;;5030878;28;20335;-52
2021/05/31 13:08:14;;;;;;;4.90;1.58;;;27.80;46.30;;;;;;5048212;28;20169;-53
2021/05/31 13:10:48;;;;;;;2.42;1.10;;;28.00;45.40;;;;;;5048670;28;20458;-51
2021/05/31 13:13:20;;;;;;;1.60;0.88;;;28.10;46.10;;;;;;5029474;28;20021;-51